sensor_id;sensor_type;location;lat;lon;timestamp;temperature;humidity
57709;SHT35;42558;52.388;13.390;2022-09-09T00:05:00;15.04;85.77
57709;SHT35;42558;52.388;13.390;2022-09-09T00:07:48;14.97;85.41
57709;SHT35;42558;52.388;13.390;2022-09-09T00:15:59;14.88;85.26
57709;SHT35;42558;52.388;13.390;2022-09-09T00:27:27;14.75;86.17
57709;SHT35;42558;52.388;13.390;2022-09-09T00:30:20;14.69;86.06
57709;SHT35;42558;52.388;13.390;2022-09-09T00:32:55;14.69;85.90
57709;SHT35;42558;52.388;13.390;2022-09-09T00:35:31;14.70;85.73
57709;SHT35;42558;52.388;13.390;2022-09-09T00:41:10;14.66;85.34
57709;SHT35;42558;52.388;13.390;2022-09-09T00:43:40;14.52;86.38
57709;SHT35;42558;52.388;13.390;2022-09-09T00:51:59;14.37;88.63
57709;SHT35;42558;52.388;13.390;2022-09-09T00:57:42;14.48;87.19
57709;SHT35;42558;52.388;13.390;2022-09-09T01:02:52;14.46;86.51
57709;SHT35;42558;52.388;13.390;2022-09-09T01:05:54;14.44;86.48
57709;SHT35;42558;52.388;13.390;2022-09-09T01:11:25;14.46;86.50
57709;SHT35;42558;52.388;13.390;2022-09-09T01:14:05;14.49;85.95
57709;SHT35;42558;52.388;13.390;2022-09-09T01:16:58;14.47;85.68
57709;SHT35;42558;52.388;13.390;2022-09-09T01:19:40;14.46;85.84
57709;SHT35;42558;52.388;13.390;2022-09-09T01:22:44;14.45;85.56
57709;SHT35;42558;52.388;13.390;2022-09-09T01:25:56;14.37;85.57
57709;SHT35;42558;52.388;13.390;2022-09-09T01:28:51;14.35;86.07
57709;SHT35;42558;52.388;13.390;2022-09-09T01:31:38;14.26;85.71
57709;SHT35;42558;52.388;13.390;2022-09-09T01:34:18;14.18;86.00
57709;SHT35;42558;52.388;13.390;2022-09-09T01:36:57;14.13;86.03
57709;SHT35;42558;52.388;13.390;2022-09-09T01:39:31;14.13;86.56
57709;SHT35;42558;52.388;13.390;2022-09-09T01:42:01;14.16;86.27
57709;SHT35;42558;52.388;13.390;2022-09-09T01:44:32;14.19;86.17
57709;SHT35;42558;52.388;13.390;2022-09-09T01:47:02;14.20;85.75
57709;SHT35;42558;52.388;13.390;2022-09-09T01:49:30;14.17;85.69
57709;SHT35;42558;52.388;13.390;2022-09-09T01:51:58;14.17;85.70
57709;SHT35;42558;52.388;13.390;2022-09-09T01:54:26;14.16;85.73
57709;SHT35;42558;52.388;13.390;2022-09-09T02:02:42;14.12;85.59
57709;SHT35;42558;52.388;13.390;2022-09-09T02:05:41;14.16;85.53
57709;SHT35;42558;52.388;13.390;2022-09-09T02:08:30;14.13;85.14
57709;SHT35;42558;52.388;13.390;2022-09-09T02:11:23;14.06;85.01
57709;SHT35;42558;52.388;13.390;2022-09-09T02:14:04;14.01;85.38
57709;SHT35;42558;52.388;13.390;2022-09-09T02:16:40;13.96;85.43
57709;SHT35;42558;52.388;13.390;2022-09-09T02:19:15;13.92;85.51
57709;SHT35;42558;52.388;13.390;2022-09-09T02:21:58;13.87;85.80
57709;SHT35;42558;52.388;13.390;2022-09-09T02:24:29;13.90;85.97
57709;SHT35;42558;52.388;13.390;2022-09-09T02:27:03;13.89;85.60
57709;SHT35;42558;52.388;13.390;2022-09-09T02:29:36;13.78;85.69
57709;SHT35;42558;52.388;13.390;2022-09-09T02:32:12;13.69;86.24
57709;SHT35;42558;52.388;13.390;2022-09-09T02:34:47;13.66;86.80
57709;SHT35;42558;52.388;13.390;2022-09-09T02:37:21;13.61;86.93
57709;SHT35;42558;52.388;13.390;2022-09-09T02:39:58;13.55;87.03
57709;SHT35;42558;52.388;13.390;2022-09-09T02:42:25;13.47;87.46
57709;SHT35;42558;52.388;13.390;2022-09-09T02:44:52;13.48;88.21
57709;SHT35;42558;52.388;13.390;2022-09-09T02:53:17;13.55;88.87
57709;SHT35;42558;52.388;13.390;2022-09-09T02:55:51;13.56;89.31
57709;SHT35;42558;52.388;13.390;2022-09-09T02:58:26;13.51;89.55
57709;SHT35;42558;52.388;13.390;2022-09-09T03:00:54;13.49;89.35
57709;SHT35;42558;52.388;13.390;2022-09-09T03:03:24;13.42;89.02
57709;SHT35;42558;52.388;13.390;2022-09-09T03:05:51;13.40;89.30
57709;SHT35;42558;52.388;13.390;2022-09-09T03:08:18;13.42;89.64
57709;SHT35;42558;52.388;13.390;2022-09-09T03:10:44;13.42;89.84
57709;SHT35;42558;52.388;13.390;2022-09-09T03:13:11;13.39;90.08
57709;SHT35;42558;52.388;13.390;2022-09-09T03:15:39;13.36;90.24
57709;SHT35;42558;52.388;13.390;2022-09-09T03:18:05;13.38;90.47
57709;SHT35;42558;52.388;13.390;2022-09-09T03:20:33;13.37;90.41
57709;SHT35;42558;52.388;13.390;2022-09-09T03:23:00;13.39;90.31
57709;SHT35;42558;52.388;13.390;2022-09-09T03:25:28;13.40;90.15
57709;SHT35;42558;52.388;13.390;2022-09-09T03:27:55;13.43;90.17
57709;SHT35;42558;52.388;13.390;2022-09-09T03:30:23;13.40;90.14
57709;SHT35;42558;52.388;13.390;2022-09-09T03:32:52;13.42;90.03
57709;SHT35;42558;52.388;13.390;2022-09-09T03:35:19;13.41;89.72
57709;SHT35;42558;52.388;13.390;2022-09-09T03:37:47;13.39;89.62
57709;SHT35;42558;52.388;13.390;2022-09-09T03:40:14;13.35;89.44
57709;SHT35;42558;52.388;13.390;2022-09-09T03:42:41;13.32;89.39
57709;SHT35;42558;52.388;13.390;2022-09-09T03:45:08;13.27;89.33
57709;SHT35;42558;52.388;13.390;2022-09-09T03:47:37;13.28;89.59
57709;SHT35;42558;52.388;13.390;2022-09-09T03:50:05;13.30;89.54
57709;SHT35;42558;52.388;13.390;2022-09-09T03:52:36;13.33;89.33
57709;SHT35;42558;52.388;13.390;2022-09-09T03:55:05;13.37;88.93
57709;SHT35;42558;52.388;13.390;2022-09-09T03:57:33;13.34;88.44
57709;SHT35;42558;52.388;13.390;2022-09-09T04:00:05;13.29;88.40
57709;SHT35;42558;52.388;13.390;2022-09-09T04:02:34;13.31;88.54
57709;SHT35;42558;52.388;13.390;2022-09-09T04:05:01;13.34;88.23
57709;SHT35;42558;52.388;13.390;2022-09-09T04:07:28;13.35;87.96
57709;SHT35;42558;52.388;13.390;2022-09-09T04:09:54;13.39;87.80
57709;SHT35;42558;52.388;13.390;2022-09-09T04:12:21;13.34;87.23
57709;SHT35;42558;52.388;13.390;2022-09-09T04:14:49;13.31;87.26
57709;SHT35;42558;52.388;13.390;2022-09-09T04:17:15;13.29;87.23
57709;SHT35;42558;52.388;13.390;2022-09-09T04:19:43;13.29;87.28
57709;SHT35;42558;52.388;13.390;2022-09-09T04:22:10;13.25;87.27
57709;SHT35;42558;52.388;13.390;2022-09-09T04:24:37;13.20;87.55
57709;SHT35;42558;52.388;13.390;2022-09-09T04:27:04;13.22;88.03
57709;SHT35;42558;52.388;13.390;2022-09-09T04:29:31;13.27;87.98
57709;SHT35;42558;52.388;13.390;2022-09-09T04:31:58;13.30;87.70
57709;SHT35;42558;52.388;13.390;2022-09-09T04:34:24;13.28;87.37
57709;SHT35;42558;52.388;13.390;2022-09-09T04:36:52;13.24;87.43
57709;SHT35;42558;52.388;13.390;2022-09-09T04:39:18;13.23;87.83
57709;SHT35;42558;52.388;13.390;2022-09-09T04:41:46;13.24;87.83
57709;SHT35;42558;52.388;13.390;2022-09-09T04:44:13;13.22;87.95
57709;SHT35;42558;52.388;13.390;2022-09-09T04:46:40;13.23;88.91
57709;SHT35;42558;52.388;13.390;2022-09-09T04:49:07;13.21;89.46
57709;SHT35;42558;52.388;13.390;2022-09-09T04:51:40;13.16;89.52
57709;SHT35;42558;52.388;13.390;2022-09-09T04:54:07;13.16;89.66
57709;SHT35;42558;52.388;13.390;2022-09-09T04:56:33;13.16;89.84
57709;SHT35;42558;52.388;13.390;2022-09-09T04:59:00;13.17;90.02
57709;SHT35;42558;52.388;13.390;2022-09-09T05:01:29;13.21;90.46
57709;SHT35;42558;52.388;13.390;2022-09-09T05:03:55;13.23;90.60
57709;SHT35;42558;52.388;13.390;2022-09-09T05:06:22;13.26;90.85
57709;SHT35;42558;52.388;13.390;2022-09-09T05:08:49;13.28;90.97
57709;SHT35;42558;52.388;13.390;2022-09-09T05:11:21;13.28;90.96
57709;SHT35;42558;52.388;13.390;2022-09-09T05:13:50;13.32;91.21
57709;SHT35;42558;52.388;13.390;2022-09-09T05:16:19;13.36;91.24
57709;SHT35;42558;52.388;13.390;2022-09-09T05:18:47;13.40;91.29
57709;SHT35;42558;52.388;13.390;2022-09-09T05:21:16;13.43;91.23
57709;SHT35;42558;52.388;13.390;2022-09-09T05:23:45;13.47;91.25
57709;SHT35;42558;52.388;13.390;2022-09-09T05:26:13;13.48;91.33
57709;SHT35;42558;52.388;13.390;2022-09-09T05:28:43;13.52;91.40
57709;SHT35;42558;52.388;13.390;2022-09-09T05:31:11;13.58;91.40
57709;SHT35;42558;52.388;13.390;2022-09-09T05:33:41;13.64;91.36
57709;SHT35;42558;52.388;13.390;2022-09-09T05:36:16;13.66;91.31
57709;SHT35;42558;52.388;13.390;2022-09-09T05:38:46;13.66;91.32
57709;SHT35;42558;52.388;13.390;2022-09-09T05:41:14;13.70;91.32
57709;SHT35;42558;52.388;13.390;2022-09-09T05:43:44;13.73;91.18
57709;SHT35;42558;52.388;13.390;2022-09-09T05:46:12;13.81;91.22
57709;SHT35;42558;52.388;13.390;2022-09-09T05:48:45;13.86;91.23
57709;SHT35;42558;52.388;13.390;2022-09-09T05:51:15;13.94;91.24
57709;SHT35;42558;52.388;13.390;2022-09-09T05:53:47;13.95;91.03
57709;SHT35;42558;52.388;13.390;2022-09-09T05:56:16;13.98;90.81
57709;SHT35;42558;52.388;13.390;2022-09-09T05:58:50;14.05;90.65
57709;SHT35;42558;52.388;13.390;2022-09-09T06:01:21;14.22;90.72
57709;SHT35;42558;52.388;13.390;2022-09-09T06:03:53;14.30;90.24
57709;SHT35;42558;52.388;13.390;2022-09-09T06:06:22;14.46;89.98
57709;SHT35;42558;52.388;13.390;2022-09-09T06:08:56;14.47;89.37
57709;SHT35;42558;52.388;13.390;2022-09-09T06:11:25;14.64;89.47
57709;SHT35;42558;52.388;13.390;2022-09-09T06:13:57;14.79;89.12
57709;SHT35;42558;52.388;13.390;2022-09-09T06:16:26;15.00;88.84
57709;SHT35;42558;52.388;13.390;2022-09-09T06:18:55;15.08;87.80
57709;SHT35;42558;52.388;13.390;2022-09-09T06:21:28;15.16;87.69
57709;SHT35;42558;52.388;13.390;2022-09-09T06:23:59;15.38;87.33
57709;SHT35;42558;52.388;13.390;2022-09-09T06:26:31;15.32;87.09
57709;SHT35;42558;52.388;13.390;2022-09-09T06:29:00;15.25;87.27
57709;SHT35;42558;52.388;13.390;2022-09-09T06:31:33;15.30;87.49
57709;SHT35;42558;52.388;13.390;2022-09-09T06:34:06;15.47;87.28
57709;SHT35;42558;52.388;13.390;2022-09-09T06:36:35;15.56;86.85
57709;SHT35;42558;52.388;13.390;2022-09-09T06:39:05;15.89;86.84
57709;SHT35;42558;52.388;13.390;2022-09-09T06:41:40;16.14;85.05
57709;SHT35;42558;52.388;13.390;2022-09-09T06:44:09;16.18;85.02
57709;SHT35;42558;52.388;13.390;2022-09-09T06:46:38;16.48;85.46
57709;SHT35;42558;52.388;13.390;2022-09-09T06:49:07;16.77;83.65
57709;SHT35;42558;52.388;13.390;2022-09-09T06:51:35;17.00;83.81
57709;SHT35;42558;52.388;13.390;2022-09-09T06:54:10;17.11;83.02
57709;SHT35;42558;52.388;13.390;2022-09-09T06:56:39;17.02;83.52
57709;SHT35;42558;52.388;13.390;2022-09-09T06:59:09;17.09;83.02
57709;SHT35;42558;52.388;13.390;2022-09-09T07:01:39;17.21;82.24
57709;SHT35;42558;52.388;13.390;2022-09-09T07:04:08;17.18;81.28
57709;SHT35;42558;52.388;13.390;2022-09-09T07:06:38;17.27;81.80
57709;SHT35;42558;52.388;13.390;2022-09-09T07:09:12;17.51;80.51
57709;SHT35;42558;52.388;13.390;2022-09-09T07:11:42;17.62;80.58
57709;SHT35;42558;52.388;13.390;2022-09-09T07:14:12;17.76;80.98
57709;SHT35;42558;52.388;13.390;2022-09-09T07:16:41;17.85;80.74
57709;SHT35;42558;52.388;13.390;2022-09-09T07:19:10;17.77;79.02
57709;SHT35;42558;52.388;13.390;2022-09-09T07:21:38;17.54;80.26
57709;SHT35;42558;52.388;13.390;2022-09-09T07:24:08;17.70;81.30
57709;SHT35;42558;52.388;13.390;2022-09-09T07:26:37;17.92;79.99
57709;SHT35;42558;52.388;13.390;2022-09-09T07:29:06;18.01;80.00
57709;SHT35;42558;52.388;13.390;2022-09-09T07:31:35;18.24;79.93
57709;SHT35;42558;52.388;13.390;2022-09-09T07:34:06;18.53;78.72
57709;SHT35;42558;52.388;13.390;2022-09-09T07:36:34;18.57;77.88
57709;SHT35;42558;52.388;13.390;2022-09-09T07:39:08;18.53;78.37
57709;SHT35;42558;52.388;13.390;2022-09-09T07:41:43;18.50;77.83
57709;SHT35;42558;52.388;13.390;2022-09-09T07:44:13;18.40;77.67
57709;SHT35;42558;52.388;13.390;2022-09-09T07:46:47;18.43;77.23
57709;SHT35;42558;52.388;13.390;2022-09-09T07:49:15;18.59;77.64
57709;SHT35;42558;52.388;13.390;2022-09-09T07:51:43;18.51;77.18
57709;SHT35;42558;52.388;13.390;2022-09-09T07:54:13;18.90;77.10
57709;SHT35;42558;52.388;13.390;2022-09-09T07:56:42;18.55;76.18
57709;SHT35;42558;52.388;13.390;2022-09-09T07:59:09;18.48;77.72
57709;SHT35;42558;52.388;13.390;2022-09-09T08:01:38;18.62;76.96
57709;SHT35;42558;52.388;13.390;2022-09-09T08:04:13;18.46;77.44
57709;SHT35;42558;52.388;13.390;2022-09-09T08:06:45;18.95;77.52
57709;SHT35;42558;52.388;13.390;2022-09-09T08:09:21;19.27;74.45
57709;SHT35;42558;52.388;13.390;2022-09-09T08:11:51;18.57;75.86
57709;SHT35;42558;52.388;13.390;2022-09-09T08:14:18;18.56;77.22
57709;SHT35;42558;52.388;13.390;2022-09-09T08:16:46;18.81;76.68
57709;SHT35;42558;52.388;13.390;2022-09-09T08:19:15;18.91;75.88
57709;SHT35;42558;52.388;13.390;2022-09-09T08:21:43;18.96;76.54
57709;SHT35;42558;52.388;13.390;2022-09-09T08:24:11;19.09;76.94
57709;SHT35;42558;52.388;13.390;2022-09-09T08:26:43;19.22;76.75
57709;SHT35;42558;52.388;13.390;2022-09-09T08:29:15;19.17;75.91
57709;SHT35;42558;52.388;13.390;2022-09-09T08:31:50;18.84;76.82
57709;SHT35;42558;52.388;13.390;2022-09-09T08:34:21;18.42;77.68
57709;SHT35;42558;52.388;13.390;2022-09-09T08:36:49;18.14;78.35
57709;SHT35;42558;52.388;13.390;2022-09-09T08:39:18;17.93;79.42
57709;SHT35;42558;52.388;13.390;2022-09-09T08:47:47;17.81;79.18
57709;SHT35;42558;52.388;13.390;2022-09-09T08:50:47;17.85;78.20
57709;SHT35;42558;52.388;13.390;2022-09-09T08:55:57;18.24;77.43
57709;SHT35;42558;52.388;13.390;2022-09-09T08:58:31;18.52;77.28
57709;SHT35;42558;52.388;13.390;2022-09-09T09:13:13;19.36;73.27
57709;SHT35;42558;52.388;13.390;2022-09-09T09:15:53;19.19;73.25
57709;SHT35;42558;52.388;13.390;2022-09-09T09:18:28;19.01;73.97
57709;SHT35;42558;52.388;13.390;2022-09-09T09:21:02;19.50;73.51
57709;SHT35;42558;52.388;13.390;2022-09-09T09:24:12;19.77;72.77
57709;SHT35;42558;52.388;13.390;2022-09-09T09:26:59;20.47;72.32
57709;SHT35;42558;52.388;13.390;2022-09-09T09:29:39;21.19;71.10
57709;SHT35;42558;52.388;13.390;2022-09-09T09:32:31;21.37;67.26
57709;SHT35;42558;52.388;13.390;2022-09-09T09:35:02;20.92;68.99
57709;SHT35;42558;52.388;13.390;2022-09-09T09:37:37;21.11;68.05
57709;SHT35;42558;52.388;13.390;2022-09-09T09:40:30;20.73;68.93
57709;SHT35;42558;52.388;13.390;2022-09-09T09:42:58;21.09;67.97
57709;SHT35;42558;52.388;13.390;2022-09-09T09:46:00;21.34;66.52
57709;SHT35;42558;52.388;13.390;2022-09-09T09:48:41;21.37;68.57
57709;SHT35;42558;52.388;13.390;2022-09-09T09:51:09;21.96;67.33
57709;SHT35;42558;52.388;13.390;2022-09-09T09:53:42;22.29;66.03
57709;SHT35;42558;52.388;13.390;2022-09-09T09:56:11;22.27;66.25
57709;SHT35;42558;52.388;13.390;2022-09-09T10:03:51;22.25;64.61
57709;SHT35;42558;52.388;13.390;2022-09-09T10:06:33;22.33;65.52
57709;SHT35;42558;52.388;13.390;2022-09-09T10:09:17;22.28;63.75
57709;SHT35;42558;52.388;13.390;2022-09-09T10:15:02;21.97;64.85
57709;SHT35;42558;52.388;13.390;2022-09-09T10:18:02;21.68;65.06
57709;SHT35;42558;52.388;13.390;2022-09-09T10:20:55;21.79;66.64
57709;SHT35;42558;52.388;13.390;2022-09-09T10:33:01;21.35;66.76
57709;SHT35;42558;52.388;13.390;2022-09-09T10:38:46;21.45;66.08
57709;SHT35;42558;52.388;13.390;2022-09-09T10:47:54;21.66;65.40
57709;SHT35;42558;52.388;13.390;2022-09-09T10:56:20;22.41;62.39
57709;SHT35;42558;52.388;13.390;2022-09-09T10:58:52;22.58;63.32
57709;SHT35;42558;52.388;13.390;2022-09-09T11:01:41;22.17;62.33
57709;SHT35;42558;52.388;13.390;2022-09-09T11:06:57;22.28;62.89
57709;SHT35;42558;52.388;13.390;2022-09-09T11:09:38;22.82;63.20
57709;SHT35;42558;52.388;13.390;2022-09-09T11:12:17;23.05;59.84
57709;SHT35;42558;52.388;13.390;2022-09-09T11:15:06;23.15;60.17
57709;SHT35;42558;52.388;13.390;2022-09-09T11:17:47;23.35;58.88
57709;SHT35;42558;52.388;13.390;2022-09-09T11:20:18;23.16;59.86
57709;SHT35;42558;52.388;13.390;2022-09-09T11:22:48;22.78;60.82
57709;SHT35;42558;52.388;13.390;2022-09-09T11:36:53;22.55;62.11
57709;SHT35;42558;52.388;13.390;2022-09-09T11:42:38;22.95;60.84
57709;SHT35;42558;52.388;13.390;2022-09-09T11:45:19;23.16;58.85
57709;SHT35;42558;52.388;13.390;2022-09-09T11:47:54;23.08;59.14
57709;SHT35;42558;52.388;13.390;2022-09-09T11:52:50;23.21;58.82
57709;SHT35;42558;52.388;13.390;2022-09-09T11:55:32;22.99;58.35
57709;SHT35;42558;52.388;13.390;2022-09-09T11:58:02;22.84;60.67
57709;SHT35;42558;52.388;13.390;2022-09-09T12:00:43;22.96;58.70
57709;SHT35;42558;52.388;13.390;2022-09-09T12:05:59;23.08;59.13
57709;SHT35;42558;52.388;13.390;2022-09-09T12:08:42;23.22;57.36
57709;SHT35;42558;52.388;13.390;2022-09-09T12:11:23;22.88;59.94
57709;SHT35;42558;52.388;13.390;2022-09-09T12:13:54;22.95;60.11
57709;SHT35;42558;52.388;13.390;2022-09-09T12:16:36;23.09;58.82
57709;SHT35;42558;52.388;13.390;2022-09-09T12:19:06;23.41;58.41
57709;SHT35;42558;52.388;13.390;2022-09-09T12:22:00;23.42;58.08
57709;SHT35;42558;52.388;13.390;2022-09-09T12:25:20;23.17;57.77
57709;SHT35;42558;52.388;13.390;2022-09-09T12:28:01;22.73;58.40
57709;SHT35;42558;52.388;13.390;2022-09-09T12:31:05;22.49;58.57
57709;SHT35;42558;52.388;13.390;2022-09-09T12:34:18;22.54;59.21
57709;SHT35;42558;52.388;13.390;2022-09-09T12:37:15;22.57;60.02
57709;SHT35;42558;52.388;13.390;2022-09-09T12:42:26;23.01;59.96
57709;SHT35;42558;52.388;13.390;2022-09-09T12:44:58;22.94;59.33
57709;SHT35;42558;52.388;13.390;2022-09-09T12:50:30;22.31;58.95
57709;SHT35;42558;52.388;13.390;2022-09-09T12:53:03;22.25;59.95
57709;SHT35;42558;52.388;13.390;2022-09-09T12:55:36;22.22;59.39
57709;SHT35;42558;52.388;13.390;2022-09-09T12:58:05;22.16;60.19
57709;SHT35;42558;52.388;13.390;2022-09-09T13:00:33;22.40;60.45
57709;SHT35;42558;52.388;13.390;2022-09-09T13:03:14;22.55;60.52
57709;SHT35;42558;52.388;13.390;2022-09-09T13:05:46;22.52;58.79
57709;SHT35;42558;52.388;13.390;2022-09-09T13:08:14;22.41;60.23
57709;SHT35;42558;52.388;13.390;2022-09-09T13:10:47;22.65;61.40
57709;SHT35;42558;52.388;13.390;2022-09-09T13:13:28;22.88;61.14
57709;SHT35;42558;52.388;13.390;2022-09-09T13:16:18;22.90;59.69
57709;SHT35;42558;52.388;13.390;2022-09-09T13:21:43;22.83;60.19
57709;SHT35;42558;52.388;13.390;2022-09-09T13:24:27;22.81;60.40
57709;SHT35;42558;52.388;13.390;2022-09-09T13:27:05;22.84;61.11
57709;SHT35;42558;52.388;13.390;2022-09-09T13:30:01;22.80;59.69
57709;SHT35;42558;52.388;13.390;2022-09-09T13:32:46;22.89;60.46
57709;SHT35;42558;52.388;13.390;2022-09-09T13:35:23;22.81;60.64
57709;SHT35;42558;52.388;13.390;2022-09-09T13:37:50;22.71;62.04
57709;SHT35;42558;52.388;13.390;2022-09-09T13:40:18;22.76;63.24
57709;SHT35;42558;52.388;13.390;2022-09-09T13:42:51;22.70;61.69
57709;SHT35;42558;52.388;13.390;2022-09-09T13:45:22;22.65;61.82
57709;SHT35;42558;52.388;13.390;2022-09-09T13:47:53;22.70;62.04
57709;SHT35;42558;52.388;13.390;2022-09-09T13:50:22;22.69;62.51
57709;SHT35;42558;52.388;13.390;2022-09-09T13:52:56;22.58;62.62
57709;SHT35;42558;52.388;13.390;2022-09-09T13:55:25;22.31;62.46
57709;SHT35;42558;52.388;13.390;2022-09-09T13:57:55;22.15;62.96
57709;SHT35;42558;52.388;13.390;2022-09-09T14:00:32;22.10;65.48
57709;SHT35;42558;52.388;13.390;2022-09-09T14:03:00;22.12;67.50
57709;SHT35;42558;52.388;13.390;2022-09-09T14:05:31;21.95;68.51
57709;SHT35;42558;52.388;13.390;2022-09-09T14:08:00;21.76;69.72
57709;SHT35;42558;52.388;13.390;2022-09-09T14:10:29;21.62;70.04
57709;SHT35;42558;52.388;13.390;2022-09-09T14:12:56;21.49;70.52
57709;SHT35;42558;52.388;13.390;2022-09-09T14:15:23;21.16;72.00
57709;SHT35;42558;52.388;13.390;2022-09-09T14:17:50;20.82;72.37
57709;SHT35;42558;52.388;13.390;2022-09-09T14:20:18;20.68;73.02
57709;SHT35;42558;52.388;13.390;2022-09-09T14:22:46;20.67;72.37
57709;SHT35;42558;52.388;13.390;2022-09-09T14:25:13;20.53;74.09
57709;SHT35;42558;52.388;13.390;2022-09-09T14:27:40;20.76;74.14
57709;SHT35;42558;52.388;13.390;2022-09-09T14:30:09;20.97;71.99
57709;SHT35;42558;52.388;13.390;2022-09-09T14:32:36;21.02;71.80
57709;SHT35;42558;52.388;13.390;2022-09-09T14:35:03;21.08;71.30
57709;SHT35;42558;52.388;13.390;2022-09-09T14:37:30;21.06;70.81
57709;SHT35;42558;52.388;13.390;2022-09-09T14:39:57;21.05;70.46
57709;SHT35;42558;52.388;13.390;2022-09-09T14:42:25;21.06;69.76
57709;SHT35;42558;52.388;13.390;2022-09-09T14:44:53;21.10;68.55
57709;SHT35;42558;52.388;13.390;2022-09-09T14:47:19;21.16;68.22
57709;SHT35;42558;52.388;13.390;2022-09-09T14:49:46;21.29;68.60
57709;SHT35;42558;52.388;13.390;2022-09-09T14:52:16;21.38;68.74
57709;SHT35;42558;52.388;13.390;2022-09-09T14:54:43;21.48;68.10
57709;SHT35;42558;52.388;13.390;2022-09-09T14:57:10;21.37;67.13
57709;SHT35;42558;52.388;13.390;2022-09-09T14:59:36;21.30;68.86
57709;SHT35;42558;52.388;13.390;2022-09-09T15:02:03;21.27;71.42
57709;SHT35;42558;52.388;13.390;2022-09-09T15:04:31;21.21;71.83
57709;SHT35;42558;52.388;13.390;2022-09-09T15:06:58;21.35;70.81
57709;SHT35;42558;52.388;13.390;2022-09-09T15:09:25;21.16;65.16
57709;SHT35;42558;52.388;13.390;2022-09-09T15:11:52;21.25;66.12
57709;SHT35;42558;52.388;13.390;2022-09-09T15:14:18;21.54;63.11
57709;SHT35;42558;52.388;13.390;2022-09-09T15:16:50;21.93;61.60
57709;SHT35;42558;52.388;13.390;2022-09-09T15:19:17;22.27;60.72
57709;SHT35;42558;52.388;13.390;2022-09-09T15:21:44;22.25;63.45
57709;SHT35;42558;52.388;13.390;2022-09-09T15:24:10;22.09;65.67
57709;SHT35;42558;52.388;13.390;2022-09-09T15:26:39;21.93;67.01
57709;SHT35;42558;52.388;13.390;2022-09-09T15:29:05;21.65;66.49
57709;SHT35;42558;52.388;13.390;2022-09-09T15:31:34;21.59;64.80
57709;SHT35;42558;52.388;13.390;2022-09-09T15:34:03;21.97;66.49
57709;SHT35;42558;52.388;13.390;2022-09-09T15:36:36;22.34;65.48
57709;SHT35;42558;52.388;13.390;2022-09-09T15:39:10;22.42;59.93
57709;SHT35;42558;52.388;13.390;2022-09-09T15:41:42;22.70;60.99
57709;SHT35;42558;52.388;13.390;2022-09-09T15:44:14;22.89;59.36
57709;SHT35;42558;52.388;13.390;2022-09-09T15:46:52;22.83;62.06
57709;SHT35;42558;52.388;13.390;2022-09-09T15:49:21;22.55;59.64
57709;SHT35;42558;52.388;13.390;2022-09-09T15:51:58;22.39;60.08
57709;SHT35;42558;52.388;13.390;2022-09-09T15:54:36;22.38;60.55
57709;SHT35;42558;52.388;13.390;2022-09-09T15:57:07;22.34;61.46
57709;SHT35;42558;52.388;13.390;2022-09-09T15:59:38;22.20;62.92
57709;SHT35;42558;52.388;13.390;2022-09-09T16:02:06;22.13;64.43
57709;SHT35;42558;52.388;13.390;2022-09-09T16:04:33;22.10;61.89
57709;SHT35;42558;52.388;13.390;2022-09-09T16:07:03;22.07;63.18
57709;SHT35;42558;52.388;13.390;2022-09-09T16:09:32;22.03;65.07
57709;SHT35;42558;52.388;13.390;2022-09-09T16:12:02;21.92;64.20
57709;SHT35;42558;52.388;13.390;2022-09-09T16:14:38;21.78;65.59
57709;SHT35;42558;52.388;13.390;2022-09-09T16:17:05;21.65;65.77
57709;SHT35;42558;52.388;13.390;2022-09-09T16:19:32;21.58;65.31
57709;SHT35;42558;52.388;13.390;2022-09-09T16:22:00;21.53;66.07
57709;SHT35;42558;52.388;13.390;2022-09-09T16:24:30;21.40;65.31
57709;SHT35;42558;52.388;13.390;2022-09-09T16:26:57;21.29;66.68
57709;SHT35;42558;52.388;13.390;2022-09-09T16:29:24;21.26;67.22
57709;SHT35;42558;52.388;13.390;2022-09-09T16:31:54;21.20;66.93
57709;SHT35;42558;52.388;13.390;2022-09-09T16:34:29;21.01;66.90
57709;SHT35;42558;52.388;13.390;2022-09-09T16:36:56;20.86;68.90
57709;SHT35;42558;52.388;13.390;2022-09-09T16:39:23;20.73;69.19
57709;SHT35;42558;52.388;13.390;2022-09-09T16:41:49;20.63;68.24
57709;SHT35;42558;52.388;13.390;2022-09-09T16:44:17;20.51;68.44
57709;SHT35;42558;52.388;13.390;2022-09-09T16:46:46;20.34;66.95
57709;SHT35;42558;52.388;13.390;2022-09-09T16:49:15;20.27;67.06
57709;SHT35;42558;52.388;13.390;2022-09-09T16:51:43;20.12;66.55
57709;SHT35;42558;52.388;13.390;2022-09-09T16:54:13;19.98;66.57
57709;SHT35;42558;52.388;13.390;2022-09-09T16:56:44;19.84;67.20
57709;SHT35;42558;52.388;13.390;2022-09-09T16:59:14;19.76;67.08
57709;SHT35;42558;52.388;13.390;2022-09-09T17:01:44;19.61;66.60
57709;SHT35;42558;52.388;13.390;2022-09-09T17:04:16;19.50;67.12
57709;SHT35;42558;52.388;13.390;2022-09-09T17:06:48;19.45;67.18
57709;SHT35;42558;52.388;13.390;2022-09-09T17:09:17;19.40;67.04
57709;SHT35;42558;52.388;13.390;2022-09-09T17:11:45;19.29;66.63
57709;SHT35;42558;52.388;13.390;2022-09-09T17:14:17;19.23;66.37
57709;SHT35;42558;52.388;13.390;2022-09-09T17:16:45;19.19;67.78
57709;SHT35;42558;52.388;13.390;2022-09-09T17:19:13;19.12;67.09
57709;SHT35;42558;52.388;13.390;2022-09-09T17:21:40;19.04;66.91
57709;SHT35;42558;52.388;13.390;2022-09-09T17:24:27;18.93;66.72
57709;SHT35;42558;52.388;13.390;2022-09-09T17:26:55;18.91;67.46
57709;SHT35;42558;52.388;13.390;2022-09-09T17:29:23;18.85;68.04
57709;SHT35;42558;52.388;13.390;2022-09-09T17:31:51;18.79;66.80
57709;SHT35;42558;52.388;13.390;2022-09-09T17:34:19;18.61;66.31
57709;SHT35;42558;52.388;13.390;2022-09-09T17:36:46;18.58;67.64
57709;SHT35;42558;52.388;13.390;2022-09-09T17:39:14;18.51;68.43
57709;SHT35;42558;52.388;13.390;2022-09-09T17:41:41;18.39;69.23
57709;SHT35;42558;52.388;13.390;2022-09-09T17:44:08;18.28;69.30
57709;SHT35;42558;52.388;13.390;2022-09-09T17:46:40;18.18;69.59
57709;SHT35;42558;52.388;13.390;2022-09-09T17:49:10;18.12;70.61
57709;SHT35;42558;52.388;13.390;2022-09-09T17:51:44;18.12;71.51
57709;SHT35;42558;52.388;13.390;2022-09-09T17:54:16;18.17;71.45
57709;SHT35;42558;52.388;13.390;2022-09-09T17:56:46;18.25;72.34
57709;SHT35;42558;52.388;13.390;2022-09-09T17:59:14;18.23;71.51
57709;SHT35;42558;52.388;13.390;2022-09-09T18:01:45;18.18;71.41